Island Harbour, Canada
Current Conditions -  °F | °C
As of 9:00 PM on Saturday 22 Nov 2014 (Local Time) from CYQX Reporting Station
Scattered Clouds Scattered Clouds  
Wind Chill:   Ceiling: Unl
Heat Index: 23°   Visibility: 20mi
Dew Point: 14°   Wind: 18mph
Humidity: 68%   Direction: 240°WSW
Pressure: 29.65"   Gusts: 26mph
Location:  49.6°N, 54.3°W
Report Text: CYQX 230000Z 24016G23KT 20SM SCT026 SCT180 M05/M10 A2965 RMK SC3AC1 SLP048
Loading
Personal Weather Stations






























Interactive Weather Map New forecast layout! Learn more

10-Day Weather Forecast

Advertisements
Track Severe Weather on mobile